createdAt,value
2018-05-27T00:02:24.662Z,22.00
2018-05-27T00:04:52.920Z,21.90
2018-05-27T00:07:21.890Z,21.60
2018-05-27T00:09:50.087Z,21.60
2018-05-27T00:12:18.289Z,21.50
2018-05-27T00:14:46.483Z,21.90
2018-05-27T00:17:14.682Z,21.80
2018-05-27T00:19:42.899Z,22.00
2018-05-27T00:22:11.098Z,22.00
2018-05-27T00:24:39.296Z,21.90
2018-05-27T00:27:07.487Z,21.80
2018-05-27T00:29:35.678Z,21.80
2018-05-27T00:32:03.897Z,21.80
2018-05-27T00:34:32.097Z,21.60
2018-05-27T00:37:00.291Z,21.60
2018-05-27T00:39:29.261Z,22.10
2018-05-27T00:41:57.554Z,22.10
2018-05-27T00:44:25.750Z,21.90
2018-05-27T00:46:53.959Z,21.80
2018-05-27T00:49:22.148Z,21.70
2018-05-27T00:51:50.358Z,21.60
2018-05-27T00:54:18.562Z,21.50
2018-05-27T00:56:46.782Z,21.40
2018-05-27T00:59:14.984Z,21.30
2018-05-27T01:01:43.942Z,21.30
2018-05-27T01:04:12.147Z,21.30
2018-05-27T01:06:41.107Z,21.20
2018-05-27T01:09:09.331Z,21.20
2018-05-27T01:11:37.604Z,21.20
2018-05-27T01:14:05.816Z,21.10
2018-05-27T01:16:34.037Z,21.10
2018-05-27T01:19:02.990Z,21.00
2018-05-27T01:21:31.211Z,20.90
2018-05-27T01:23:59.454Z,21.20
2018-05-27T01:26:28.403Z,21.80
2018-05-27T01:28:56.646Z,21.70
2018-05-27T01:31:24.847Z,21.60
2018-05-27T01:33:53.121Z,21.80
2018-05-27T01:36:21.306Z,21.60
2018-05-27T01:38:49.579Z,21.70
2018-05-27T01:41:17.778Z,21.80
2018-05-27T01:43:45.974Z,21.70
2018-05-27T01:46:14.946Z,21.90
2018-05-27T01:48:43.220Z,21.80
2018-05-27T01:51:11.414Z,21.80
2018-05-27T01:53:39.610Z,21.80
2018-05-27T01:56:07.808Z,21.80
2018-05-27T01:58:36.006Z,21.70
2018-05-27T02:01:04.218Z,21.60
2018-05-27T02:03:33.177Z,21.70
2018-05-27T02:06:01.380Z,21.70
2018-05-27T02:08:29.570Z,21.80
2018-05-27T02:10:57.778Z,21.80
2018-05-27T02:13:26.091Z,21.70
2018-05-27T02:15:54.293Z,21.70
2018-05-27T02:18:22.493Z,21.80
2018-05-27T02:20:50.694Z,21.80
2018-05-27T02:23:18.894Z,21.60
2018-05-27T02:25:47.101Z,21.60
2018-05-27T02:28:15.499Z,21.60
2018-05-27T02:30:43.779Z,21.40
2018-05-27T02:33:11.976Z,21.50
2018-05-27T02:35:40.171Z,21.60
2018-05-27T02:38:08.414Z,21.30
2018-05-27T02:40:36.645Z,21.40
2018-05-27T02:43:04.831Z,21.50
2018-05-27T02:45:33.031Z,21.60
2018-05-27T02:48:01.238Z,21.80
2018-05-27T02:50:30.199Z,21.60
2018-05-27T02:52:58.411Z,21.60
2018-05-27T02:55:26.615Z,21.80
2018-05-27T02:57:54.794Z,22.00
2018-05-27T03:00:23.027Z,21.80
2018-05-27T03:02:51.224Z,21.70
2018-05-27T03:05:19.416Z,21.80
2018-05-27T03:07:47.615Z,21.70
2018-05-27T03:10:15.824Z,21.70
2018-05-27T03:12:44.040Z,21.50
2018-05-27T03:15:12.254Z,21.50
2018-05-27T03:17:40.431Z,21.60
2018-05-27T03:20:08.663Z,21.50
2018-05-27T03:22:36.854Z,21.70
2018-05-27T03:25:05.059Z,21.80
2018-05-27T03:27:34.029Z,21.80
2018-05-27T03:30:02.225Z,21.80
2018-05-27T03:32:30.414Z,21.60
2018-05-27T03:34:59.435Z,21.60
2018-05-27T03:37:27.655Z,21.60
2018-05-27T03:39:55.839Z,21.60
2018-05-27T03:42:24.034Z,21.50
2018-05-27T03:44:52.253Z,21.30
2018-05-27T03:47:20.446Z,21.40
2018-05-27T03:49:49.467Z,21.70
2018-05-27T03:52:17.639Z,21.70
2018-05-27T03:54:45.830Z,21.60
2018-05-27T03:57:14.794Z,21.40
2018-05-27T03:59:42.982Z,21.40
2018-05-27T04:02:11.189Z,21.40
2018-05-27T04:05:01.926Z,21.60
2018-05-27T04:07:42.007Z,21.70
2018-05-27T04:10:11.771Z,21.90
2018-05-27T04:12:40.151Z,21.90
2018-05-27T04:15:08.340Z,21.90
2018-05-27T04:17:36.534Z,21.90
2018-05-27T04:20:04.731Z,21.80
2018-05-27T04:22:32.987Z,21.60
2018-05-27T04:25:01.183Z,21.60
2018-05-27T04:27:29.388Z,21.50
2018-05-27T04:29:57.582Z,21.40
2018-05-27T04:32:26.556Z,21.30
2018-05-27T04:34:54.907Z,21.30
2018-05-27T04:37:23.113Z,21.40
2018-05-27T04:39:51.323Z,21.60
2018-05-27T04:42:19.562Z,21.40
2018-05-27T04:44:47.763Z,21.40
2018-05-27T04:47:15.970Z,21.30
2018-05-27T04:49:44.159Z,21.30
2018-05-27T04:52:12.355Z,21.40
2018-05-27T04:54:40.580Z,21.60
2018-05-27T04:57:08.775Z,21.70
2018-05-27T04:59:36.984Z,21.60
2018-05-27T05:02:05.182Z,21.60
2018-05-27T05:04:33.382Z,21.70
2018-05-27T05:07:01.718Z,21.60
2018-05-27T05:09:30.684Z,21.70
2018-05-27T05:11:58.894Z,21.70
2018-05-27T05:14:27.091Z,21.90
2018-05-27T05:16:56.061Z,21.70
2018-05-27T05:19:24.260Z,21.70
2018-05-27T05:21:52.490Z,21.90
2018-05-27T05:24:20.669Z,21.80
2018-05-27T05:26:49.618Z,21.80
2018-05-27T05:29:17.818Z,21.80
2018-05-27T05:31:46.011Z,21.80
2018-05-27T05:34:14.210Z,21.90
2018-05-27T05:36:42.414Z,22.00
2018-05-27T05:39:10.621Z,22.00
2018-05-27T05:41:39.590Z,22.10
2018-05-27T05:44:07.786Z,22.10
2018-05-27T05:46:35.988Z,22.20
2018-05-27T05:49:04.199Z,22.20
2018-05-27T05:51:32.398Z,22.10
2018-05-27T05:54:00.603Z,22.00
2018-05-27T05:56:28.799Z,22.10
2018-05-27T05:58:57.013Z,22.20
2018-05-27T06:01:25.198Z,22.40
2018-05-27T06:03:53.395Z,22.60
2018-05-27T06:06:21.631Z,22.50
2018-05-27T06:08:49.898Z,22.70
2018-05-27T06:11:18.092Z,22.70
2018-05-27T06:13:46.282Z,22.90
2018-05-27T06:16:14.473Z,23.10
2018-05-27T06:18:42.666Z,23.10
2018-05-27T06:21:10.859Z,23.20
2018-05-27T06:23:39.238Z,23.30
2018-05-27T06:26:07.446Z,23.30
2018-05-27T06:28:35.635Z,23.40
2018-05-27T06:31:03.860Z,23.30
2018-05-27T06:33:32.060Z,23.20
2018-05-27T06:36:00.273Z,23.20
2018-05-27T06:38:28.478Z,23.20
2018-05-27T06:40:56.674Z,23.20
2018-05-27T06:43:24.858Z,23.20
2018-05-27T06:45:53.056Z,23.20
2018-05-27T06:48:21.246Z,23.20
2018-05-27T06:50:49.447Z,23.10
2018-05-27T06:53:17.639Z,23.10
2018-05-27T06:55:45.833Z,23.10
2018-05-27T06:58:14.022Z,23.10
2018-05-27T07:00:42.218Z,23.20
2018-05-27T07:03:10.435Z,23.30
2018-05-27T07:05:38.621Z,23.30
2018-05-27T07:08:07.579Z,23.50
2018-05-27T07:10:35.771Z,23.50
2018-05-27T07:13:03.963Z,23.80
2018-05-27T07:15:32.982Z,24.10
2018-05-27T07:18:01.128Z,24.10
2018-05-27T07:20:30.170Z,23.70
2018-05-27T07:22:58.355Z,23.70
2018-05-27T07:25:26.554Z,23.80
2018-05-27T07:27:55.530Z,23.80
2018-05-27T07:30:23.726Z,23.80
2018-05-27T07:32:51.931Z,24.10
2018-05-27T07:35:20.122Z,24.20
2018-05-27T07:37:48.317Z,24.30
2018-05-27T07:40:16.526Z,24.40
2018-05-27T07:42:45.512Z,24.30
2018-05-27T07:45:13.687Z,24.30
2018-05-27T07:47:41.894Z,24.30
2018-05-27T07:50:10.090Z,24.30
2018-05-27T07:52:38.320Z,24.30
2018-05-27T07:55:06.482Z,24.30
2018-05-27T07:57:35.455Z,24.10
2018-05-27T08:00:03.650Z,24.10
2018-05-27T08:02:32.621Z,24.30
2018-05-27T08:05:00.896Z,24.30
2018-05-27T08:07:29.099Z,24.50
2018-05-27T08:09:57.331Z,24.40
2018-05-27T08:12:25.531Z,24.50
2018-05-27T08:14:54.493Z,24.50
2018-05-27T08:17:22.736Z,24.50
2018-05-27T08:19:50.965Z,24.70
2018-05-27T08:22:19.103Z,24.70
2018-05-27T08:24:47.323Z,24.70
2018-05-27T08:27:16.282Z,25.00
2018-05-27T08:29:44.494Z,24.90
2018-05-27T08:32:12.692Z,24.90
2018-05-27T08:34:41.671Z,24.70
2018-05-27T08:37:09.863Z,24.70
2018-05-27T08:39:38.084Z,24.80
2018-05-27T08:42:06.279Z,24.90
2018-05-27T08:44:35.234Z,25.10
2018-05-27T08:47:03.611Z,25.00
2018-05-27T08:49:31.828Z,25.10
2018-05-27T08:52:00.033Z,25.10
2018-05-27T08:54:28.495Z,25.10
2018-05-27T08:56:56.695Z,25.20
2018-05-27T08:59:24.891Z,25.30
2018-05-27T09:01:53.092Z,25.30
2018-05-27T09:04:21.290Z,25.40
2018-05-27T09:06:49.498Z,25.40
2018-05-27T09:09:17.707Z,25.50
2018-05-27T09:11:46.663Z,25.50
2018-05-27T09:14:14.870Z,25.50
2018-05-27T09:16:43.830Z,25.40
2018-05-27T09:19:12.047Z,25.40
2018-05-27T09:21:41.012Z,25.50
2018-05-27T09:24:09.217Z,25.40
2018-05-27T09:26:37.461Z,25.50
2018-05-27T09:29:05.707Z,25.70
2018-05-27T09:31:33.900Z,25.70
2018-05-27T09:34:02.103Z,25.80
2018-05-27T09:36:30.303Z,25.70
2018-05-27T09:38:58.501Z,25.80
2018-05-27T09:41:26.702Z,25.80
2018-05-27T09:43:54.902Z,25.90
2018-05-27T09:46:23.130Z,25.90
2018-05-27T09:48:51.328Z,26.00
2018-05-27T09:51:20.306Z,26.10
2018-05-27T09:53:48.502Z,26.10
2018-05-27T09:56:17.480Z,26.20
2018-05-27T09:58:45.680Z,26.20
2018-05-27T10:01:13.875Z,26.20
2018-05-27T10:03:42.097Z,26.20
2018-05-27T10:06:10.287Z,26.30
2018-05-27T10:08:39.266Z,26.40
2018-05-27T10:11:07.462Z,26.30
2018-05-27T10:13:35.659Z,26.40
2018-05-27T10:16:03.862Z,26.40
2018-05-27T10:18:32.058Z,26.40
2018-05-27T10:21:00.302Z,26.40
2018-05-27T10:23:28.477Z,26.40
2018-05-27T10:25:56.712Z,26.30
2018-05-27T10:28:24.862Z,26.40
2018-05-27T10:30:53.827Z,26.40
2018-05-27T10:33:22.023Z,26.40
2018-05-27T10:35:50.221Z,26.50
2018-05-27T10:38:18.418Z,26.50
2018-05-27T10:40:46.611Z,26.50
2018-05-27T10:43:14.812Z,26.60
2018-05-27T10:45:43.042Z,26.70
2018-05-27T10:48:11.252Z,26.80
2018-05-27T10:50:39.459Z,26.80
2018-05-27T10:53:07.658Z,26.90
2018-05-27T10:55:35.921Z,27.10
2018-05-27T10:58:04.118Z,26.90
2018-05-27T11:00:32.341Z,26.70
2018-05-27T11:03:01.323Z,26.90
2018-05-27T11:05:29.568Z,26.90
2018-05-27T11:07:57.768Z,27.00
2018-05-27T11:10:25.995Z,27.10
2018-05-27T11:12:54.190Z,27.30
2018-05-27T11:15:24.501Z,27.40
2018-05-27T11:17:53.418Z,27.20
2018-05-27T11:20:21.614Z,27.20
2018-05-27T11:22:49.823Z,27.10
2018-05-27T11:25:18.125Z,27.10
2018-05-27T11:27:46.300Z,27.10
2018-05-27T11:30:14.491Z,27.10
2018-05-27T11:32:42.706Z,27.10
2018-05-27T11:35:10.917Z,27.10
2018-05-27T11:37:39.126Z,27.20
2018-05-27T11:40:07.327Z,27.20
2018-05-27T11:42:35.524Z,27.10
2018-05-27T11:45:03.727Z,27.20
2018-05-27T11:47:31.990Z,27.10
2018-05-27T11:50:00.188Z,27.20
2018-05-27T11:52:28.386Z,27.20
2018-05-27T11:54:56.594Z,27.20
2018-05-27T11:57:24.795Z,27.20
2018-05-27T11:59:53.046Z,27.20
2018-05-27T12:02:21.247Z,27.20
2018-05-27T12:04:49.535Z,27.20
2018-05-27T12:07:17.738Z,27.20
2018-05-27T12:09:46.059Z,27.10
2018-05-27T12:12:14.171Z,27.00
2018-05-27T12:14:42.366Z,27.00
2018-05-27T12:17:10.567Z,27.00
2018-05-27T12:19:38.782Z,26.80
2018-05-27T12:22:07.009Z,26.70
2018-05-27T12:24:35.238Z,26.70
2018-05-27T12:27:03.440Z,26.70
2018-05-27T12:29:31.644Z,26.70
2018-05-27T12:31:59.849Z,26.60
2018-05-27T12:34:28.055Z,26.50
2018-05-27T12:36:56.312Z,26.50
2018-05-27T12:39:24.470Z,26.60
2018-05-27T12:41:52.663Z,26.60
2018-05-27T12:44:20.862Z,26.80
2018-05-27T12:46:49.094Z,26.70
2018-05-27T12:49:17.307Z,26.70
2018-05-27T12:51:46.286Z,26.70
2018-05-27T12:54:14.506Z,26.70
2018-05-27T12:56:42.776Z,26.70
2018-05-27T12:59:10.987Z,26.60
2018-05-27T13:01:39.978Z,26.80
2018-05-27T13:04:08.177Z,26.70
2018-05-27T13:06:36.376Z,26.70
2018-05-27T13:09:05.369Z,26.80
2018-05-27T13:11:33.559Z,26.80
2018-05-27T13:14:01.811Z,26.90
2018-05-27T13:16:30.047Z,27.00
2018-05-27T13:18:58.200Z,26.90
2018-05-27T13:21:26.391Z,26.90
2018-05-27T13:23:54.599Z,26.90
2018-05-27T13:26:23.413Z,26.90
2018-05-27T13:28:51.622Z,26.80
2018-05-27T13:31:19.829Z,26.80
2018-05-27T13:33:48.149Z,26.80
2018-05-27T13:36:16.351Z,26.80
2018-05-27T13:38:45.319Z,26.70
2018-05-27T13:41:13.533Z,26.70
2018-05-27T13:43:41.723Z,26.70
2018-05-27T13:46:09.918Z,26.60
2018-05-27T13:48:38.120Z,26.70
2018-05-27T13:51:06.342Z,26.60
2018-05-27T13:53:34.615Z,26.50
2018-05-27T13:56:02.798Z,26.50
2018-05-27T13:58:31.013Z,26.50
2018-05-27T14:00:59.218Z,26.30
2018-05-27T14:03:27.429Z,26.40
2018-05-27T14:05:55.615Z,26.40
2018-05-27T14:08:23.836Z,26.20
2018-05-27T14:10:52.043Z,26.20
2018-05-27T14:13:20.289Z,26.20
2018-05-27T14:15:48.450Z,26.20
2018-05-27T14:18:16.700Z,26.10
2018-05-27T14:20:44.890Z,26.10
2018-05-27T14:23:13.868Z,26.00
2018-05-27T14:25:42.059Z,26.00
2018-05-27T14:28:10.274Z,26.00
2018-05-27T14:30:39.458Z,25.90
2018-05-27T14:33:07.615Z,25.90
2018-05-27T14:35:35.814Z,25.90
2018-05-27T14:38:04.126Z,26.00
2018-05-27T14:40:32.327Z,26.00
2018-05-27T14:43:00.684Z,26.10
2018-05-27T14:45:28.920Z,26.30
2018-05-27T14:47:57.134Z,26.10
2018-05-27T14:50:25.385Z,26.20
2018-05-27T14:52:53.536Z,26.10
2018-05-27T14:55:21.753Z,25.90
2018-05-27T14:57:49.974Z,25.70
2018-05-27T15:00:18.176Z,25.70
2018-05-27T15:02:46.375Z,25.70
2018-05-27T15:05:15.360Z,25.50
2018-05-27T15:07:43.570Z,25.50
2018-05-27T15:10:11.763Z,25.30
2018-05-27T15:12:40.028Z,25.50
2018-05-27T15:15:08.215Z,25.40
2018-05-27T15:17:36.444Z,25.40
2018-05-27T15:20:04.657Z,25.40
2018-05-27T15:22:32.855Z,25.50
2018-05-27T15:25:01.042Z,25.50
2018-05-27T15:27:30.380Z,25.50
2018-05-27T15:29:58.619Z,25.70
2018-05-27T15:32:26.887Z,25.60
2018-05-27T15:34:55.085Z,25.50
2018-05-27T15:37:23.296Z,25.50
2018-05-27T15:39:51.486Z,25.50
2018-05-27T15:42:19.688Z,25.60
2018-05-27T15:44:47.915Z,25.60
2018-05-27T15:47:16.120Z,25.70
2018-05-27T15:49:44.316Z,25.80
2018-05-27T15:52:12.607Z,25.70
2018-05-27T15:54:40.841Z,25.70
2018-05-27T15:57:09.062Z,25.90
2018-05-27T15:59:37.267Z,26.00
2018-05-27T16:02:05.483Z,26.20
2018-05-27T16:04:33.723Z,26.10
2018-05-27T16:07:01.941Z,26.20
2018-05-27T16:09:30.231Z,26.00
2018-05-27T16:11:58.434Z,26.10
2018-05-27T16:14:26.647Z,26.00
2018-05-27T16:16:54.904Z,25.80
2018-05-27T16:19:23.086Z,25.50
2018-05-27T16:21:51.322Z,25.60
2018-05-27T16:24:19.515Z,25.70
2018-05-27T16:26:47.722Z,25.60
2018-05-27T16:29:15.914Z,25.70
2018-05-27T16:31:44.118Z,25.70
2018-05-27T16:34:12.359Z,25.60
2018-05-27T16:36:41.351Z,25.60
2018-05-27T16:39:09.544Z,25.70
2018-05-27T16:41:37.775Z,25.70
2018-05-27T16:44:05.999Z,25.70
2018-05-27T16:46:34.207Z,25.70
2018-05-27T16:49:02.398Z,25.70
2018-05-27T16:51:30.627Z,25.70
2018-05-27T16:53:58.848Z,25.70
2018-05-27T16:56:27.047Z,25.70
2018-05-27T16:58:55.251Z,25.80
2018-05-27T17:01:23.443Z,25.80
2018-05-27T17:03:51.645Z,25.90
2018-05-27T17:06:19.838Z,25.90
2018-05-27T17:08:48.106Z,25.70
2018-05-27T17:11:16.324Z,25.60
2018-05-27T17:13:44.528Z,25.60
2018-05-27T17:16:12.735Z,25.70
2018-05-27T17:18:40.984Z,25.80
2018-05-27T17:21:09.179Z,25.90
2018-05-27T17:23:37.411Z,25.90
2018-05-27T17:26:05.610Z,25.90
2018-05-27T17:28:33.879Z,25.90
2018-05-27T17:31:02.099Z,25.80
2018-05-27T17:33:30.339Z,25.70
2018-05-27T17:35:58.569Z,25.70
2018-05-27T17:38:26.743Z,24.40
2018-05-27T17:40:54.938Z,25.50
2018-05-27T17:43:23.171Z,25.50
2018-05-27T17:45:51.393Z,25.20
2018-05-27T17:48:19.609Z,25.40
2018-05-27T17:50:47.798Z,25.50
2018-05-27T17:53:16.003Z,25.60
2018-05-27T17:55:44.217Z,25.30
2018-05-27T17:58:12.462Z,25.30
2018-05-27T18:00:40.667Z,25.40
2018-05-27T18:03:09.643Z,25.10
2018-05-27T18:05:37.852Z,25.10
2018-05-27T18:08:06.117Z,25.20
2018-05-27T18:10:35.087Z,25.50
2018-05-27T18:13:03.550Z,25.50
2018-05-27T18:15:31.750Z,25.30
2018-05-27T18:17:59.958Z,24.90
2018-05-27T18:20:28.146Z,24.60
2018-05-27T18:22:56.385Z,24.40
2018-05-27T18:25:24.578Z,24.20
2018-05-27T18:27:52.832Z,24.10
2018-05-27T18:30:21.828Z,23.90
2018-05-27T18:32:50.059Z,23.90
2018-05-27T18:35:18.266Z,23.80
2018-05-27T18:37:46.494Z,23.80
2018-05-27T18:40:14.671Z,23.70
2018-05-27T18:42:42.895Z,23.70
2018-05-27T18:45:11.074Z,23.60
2018-05-27T18:47:39.276Z,23.70
2018-05-27T18:50:07.488Z,23.70
2018-05-27T18:52:35.684Z,23.50
2018-05-27T18:55:04.693Z,23.10
2018-05-27T18:57:32.901Z,23.10
2018-05-27T19:00:01.126Z,23.00
2018-05-27T19:02:30.118Z,23.60
2018-05-27T19:04:59.138Z,23.70
2018-05-27T19:07:27.345Z,23.70
2018-05-27T19:09:55.571Z,23.70
2018-05-27T19:12:23.754Z,23.70
2018-05-27T19:14:51.966Z,24.00
2018-05-27T19:17:20.175Z,24.20
2018-05-27T19:19:48.411Z,24.20
2018-05-27T19:22:16.584Z,24.20
2018-05-27T19:24:44.784Z,24.00
2018-05-27T19:27:13.022Z,23.50
2018-05-27T19:29:41.230Z,23.20
2018-05-27T19:32:10.190Z,23.00
2018-05-27T19:34:38.498Z,23.00
2018-05-27T19:37:06.663Z,23.00
2018-05-27T19:39:34.887Z,23.10
2018-05-27T19:42:03.106Z,23.40
2018-05-27T19:44:31.294Z,22.90
2018-05-27T19:46:59.495Z,22.90
2018-05-27T19:49:27.688Z,22.80
2018-05-27T19:51:55.894Z,22.70
2018-05-27T19:54:24.146Z,22.90
2018-05-27T19:56:52.355Z,22.90
2018-05-27T19:59:20.554Z,23.00
2018-05-27T20:01:48.746Z,22.90
2018-05-27T20:04:16.971Z,22.90
2018-05-27T20:06:45.167Z,22.60
2018-05-27T20:09:13.413Z,22.50
2018-05-27T20:11:41.611Z,22.50
2018-05-27T20:14:09.850Z,22.50
2018-05-27T20:16:38.253Z,22.50
2018-05-27T20:19:06.627Z,22.50
2018-05-27T20:21:34.832Z,22.50
2018-05-27T20:24:03.011Z,22.40
2018-05-27T20:26:31.203Z,21.60
2018-05-27T20:28:59.419Z,21.20
2018-05-27T20:31:28.394Z,20.70
2018-05-27T20:33:56.586Z,20.50
2018-05-27T20:36:24.791Z,20.50
2018-05-27T20:38:53.007Z,20.40
2018-05-27T20:41:21.223Z,20.50
2018-05-27T20:43:49.470Z,20.90
2018-05-27T20:46:17.675Z,20.90
2018-05-27T20:48:45.918Z,20.70
2018-05-27T20:51:14.241Z,20.50
2018-05-27T20:53:42.400Z,20.40
2018-05-27T20:56:10.879Z,20.40
2018-05-27T20:58:39.054Z,20.40
2018-05-27T21:01:07.305Z,20.50
2018-05-27T21:03:35.575Z,20.40
2018-05-27T21:06:03.823Z,20.30
2018-05-27T21:08:31.983Z,20.20
2018-05-27T21:11:00.184Z,20.10
2018-05-27T21:13:28.406Z,20.20
2018-05-27T21:15:56.636Z,20.30
2018-05-27T21:18:24.832Z,20.40
2018-05-27T21:20:53.817Z,20.40
2018-05-27T21:23:22.016Z,20.40
2018-05-27T21:25:50.228Z,20.30
2018-05-27T21:28:21.307Z,20.20
2018-05-27T21:30:49.527Z,20.20
2018-05-27T21:33:17.750Z,20.30
2018-05-27T21:35:45.963Z,20.10
2018-05-27T21:38:14.214Z,20.20
2018-05-27T21:40:42.427Z,20.30
2018-05-27T21:43:10.641Z,20.40
2018-05-27T21:45:38.839Z,20.90
2018-05-27T21:48:07.135Z,20.70
2018-05-27T21:50:35.563Z,20.50
2018-05-27T21:53:03.767Z,21.20
2018-05-27T21:55:31.982Z,22.40
2018-05-27T21:58:00.178Z,23.00
2018-05-27T22:00:28.383Z,23.30
2018-05-27T22:02:56.583Z,23.40
2018-05-27T22:05:24.798Z,23.60
2018-05-27T22:07:53.014Z,23.60
2018-05-27T22:10:21.202Z,23.70
2018-05-27T22:12:49.400Z,23.70
2018-05-27T22:15:17.611Z,23.70
2018-05-27T22:17:45.798Z,23.80
2018-05-27T22:20:14.039Z,23.80
2018-05-27T22:22:42.246Z,23.80
2018-05-27T22:25:10.450Z,23.80
2018-05-27T22:27:38.666Z,23.90
2018-05-27T22:30:06.928Z,23.90
2018-05-27T22:32:35.127Z,23.90
2018-05-27T22:35:03.338Z,23.90
2018-05-27T22:37:31.532Z,24.00
2018-05-27T22:39:59.736Z,23.90
2018-05-27T22:42:27.938Z,23.90
2018-05-27T22:44:56.130Z,24.00
2018-05-27T22:47:24.338Z,24.00
2018-05-27T22:49:52.551Z,24.00
2018-05-27T22:52:20.752Z,24.00
2018-05-27T22:54:48.947Z,24.00
2018-05-27T22:57:17.146Z,24.00
2018-05-27T22:59:45.370Z,24.00
2018-05-27T23:02:13.591Z,24.00
2018-05-27T23:04:41.788Z,24.00
2018-05-27T23:07:09.982Z,24.00
2018-05-27T23:09:38.178Z,24.00
2018-05-27T23:12:06.390Z,24.00
2018-05-27T23:14:34.600Z,24.00
2018-05-27T23:17:03.565Z,24.00
2018-05-27T23:19:31.769Z,24.00
2018-05-27T23:21:59.959Z,24.00
2018-05-27T23:24:28.168Z,24.00
2018-05-27T23:26:56.382Z,24.00
2018-05-27T23:29:25.226Z,24.00
2018-05-27T23:31:53.412Z,24.00
2018-05-27T23:34:21.610Z,24.00
2018-05-27T23:36:50.587Z,24.00
2018-05-27T23:39:18.783Z,24.00
2018-05-27T23:41:46.990Z,24.00
2018-05-27T23:44:15.187Z,24.10
2018-05-27T23:46:43.386Z,24.10
2018-05-27T23:49:11.590Z,24.10
2018-05-27T23:51:39.805Z,24.10
2018-05-27T23:54:08.022Z,24.20
2018-05-27T23:56:36.258Z,24.20
2018-05-27T23:59:04.464Z,24.20
